Date,TemperatureHighF,TemperatureAvgF,TemperatureLowF,DewpointHighF,DewpointAvgF,DewpointLowF,HumidityHigh,HumidityAvg,HumidityLow,PressureMaxIn,PressureMinIn,WindSpeedMaxMPH,WindSpeedAvgMPH,GustSpeedMaxMPH,PrecipitationSumIn
2013-1-1,51,44,38,-100,-100,-100,0,0,100,0.00,40.00,0,-999,0,0.00
2013-1-2,55,45,36,-100,-100,-100,0,0,100,0.00,40.00,0,-999,0,0.00
2013-1-3,54,44,32,-100,-100,-100,0,0,100,0.00,40.00,0,-999,0,0.00
2013-1-4,56,47,38,-100,-100,-100,0,0,100,0.00,40.00,0,-999,0,0.00
2013-1-5,52,46,39,-100,-100,-100,0,0,100,0.00,40.00,0,-999,0,0.00
2013-1-6,51,45,40,-100,-100,-100,0,0,100,0.00,40.00,0,-999,0,0.00
2013-1-7,57,45,37,-100,-100,-100,0,0,100,0.00,40.00,0,-999,0,0.00
2013-1-8,58,47,40,-100,-100,-100,0,0,100,0.00,40.00,0,-999,0,0.00
2013-1-9,56,47,43,-100,-100,-100,0,0,100,0.00,40.00,0,-999,0,0.00
2013-1-10,54,44,38,-100,-100,-100,0,0,100,0.00,40.00,0,-999,0,0.00
2013-1-11,51,43,38,-100,-100,-100,0,0,100,0.00,40.00,0,-999,0,0.00
2013-1-12,48,42,32,-100,-100,-100,0,0,100,0.00,40.00,0,-999,0,0.00
2013-1-13,47,39,29,-100,-100,-100,0,0,100,0.00,40.00,0,-999,0,0.00
2013-1-14,51,42,31,-100,-100,-100,0,0,100,0.00,40.00,0,-999,0,0.00
2013-1-15,51,41,32,-100,-100,-100,0,0,100,0.00,40.00,0,-999,0,0.00
2013-1-16,56,43,32,-100,-100,-100,0,0,100,0.00,40.00,0,-999,0,0.00
2013-1-17,62,48,38,-100,-100,-100,0,0,100,0.00,40.00,0,-999,0,0.00
2013-1-18,62,51,38,-100,-100,-100,0,0,100,0.00,40.00,0,-999,0,0.00
2013-1-19,61,52,38,-100,-100,-100,0,0,100,0.00,40.00,0,-999,0,0.00
2013-1-20,63,50,36,-100,-100,-100,0,0,100,0.00,40.00,0,-999,0,0.00
2013-1-21,62,50,38,-100,-100,-100,0,0,100,0.00,40.00,0,-999,0,0.00
2013-1-22,59,51,43,-100,-100,-100,0,0,100,0.00,40.00,0,-999,0,0.00
2013-1-23,53,50,47,-100,-100,-100,0,0,100,0.00,40.00,0,-999,0,0.00
2013-1-24,58,52,47,-100,-100,-100,0,0,100,0.00,40.00,0,-999,0,0.00
2013-1-25,62,53,48,-100,-100,-100,0,0,100,0.00,40.00,0,-999,0,0.00
2013-1-26,54,50,46,-100,-100,-100,0,0,100,0.00,40.00,0,-999,0,0.00
2013-1-27,53,47,40,-100,-100,-100,0,0,100,0.00,40.00,0,-999,0,0.00
2013-1-28,55,48,41,-100,-100,-100,0,0,100,0.00,40.00,0,-999,0,0.00
2013-1-29,58,48,39,-100,-100,-100,0,0,100,0.00,40.00,0,-999,0,0.00
2013-1-30,62,50,40,-100,-100,-100,0,0,100,0.00,40.00,0,-999,0,0.00
2013-1-31,62,50,40,-100,-100,-100,0,0,100,0.00,40.00,0,-999,0,0.00
2013-2-1,64,54,41,-100,-100,-100,0,0,100,0.00,40.00,0,-999,0,0.00
2013-2-2,58,49,43,-100,-100,-100,0,0,100,0.00,40.00,0,-999,0,0.00
2013-2-3,57,50,39,-100,-100,-100,0,0,100,0.00,40.00,0,-999,0,0.00
2013-2-4,53,47,44,-100,-100,-100,0,0,100,0.00,40.00,0,-999,0,0.00
2013-2-5,55,49,44,-100,-100,-100,0,0,100,0.00,40.00,0,-999,0,0.00
2013-2-6,55,46,37,-100,-100,-100,0,0,100,0.00,40.00,0,-999,0,0.00
2013-2-7,53,47,43,-100,-100,-100,0,0,100,0.00,40.00,0,-999,0,0.00
2013-2-8,53,46,40,-100,-100,-100,0,0,100,0.00,40.00,0,-999,0,0.00
2013-2-9,56,48,36,-100,-100,-100,0,0,100,0.00,40.00,0,-999,0,0.00
2013-2-10,58,47,36,-100,-100,-100,0,0,100,0.00,40.00,0,-999,0,0.00
2013-2-11,63,51,36,-100,-100,-100,0,0,100,0.00,40.00,0,-999,0,0.00
2013-2-12,59,48,39,-100,-100,-100,0,0,100,0.00,40.00,0,-999,0,0.00
2013-2-13,58,46,38,-100,-100,-100,0,0,100,0.00,40.00,0,-999,0,0.00
2013-2-14,65,50,40,-100,-100,-100,0,0,100,0.00,40.00,0,-999,0,0.00
2013-2-15,70,60,44,-100,-100,-100,0,0,100,0.00,40.00,0,-999,0,0.00
2013-2-16,65,54,46,-100,-100,-100,0,0,100,0.00,40.00,0,-999,0,0.00
2013-2-17,59,50,45,-100,-100,-100,0,0,100,0.00,40.00,0,-999,0,0.00
2013-2-18,50,46,43,-100,-100,-100,0,0,100,0.00,40.00,0,-999,0,0.00
2013-2-19,47,44,41,-100,-100,-100,0,0,100,0.00,40.00,0,-999,0,0.00
2013-2-20,57,46,35,-100,-100,-100,0,0,100,0.00,40.00,0,-999,0,0.00
2013-2-21,58,48,38,-100,-100,-100,0,0,100,0.00,40.00,0,-999,0,0.00
2013-2-22,58,49,37,-100,-100,-100,0,0,100,0.00,40.00,0,-999,0,0.00
2013-2-23,55,49,46,-100,-100,-100,0,0,100,0.00,40.00,0,-999,0,0.00
2013-2-24,61,51,44,-100,-100,-100,0,0,100,0.00,40.00,0,-999,0,0.00
2013-2-25,62,51,42,-100,-100,-100,0,0,100,0.00,40.00,0,-999,0,0.00
2013-2-26,67,49,37,-100,-100,-100,0,0,100,0.00,40.00,0,-999,0,0.00
2013-2-27,62,49,38,-100,-100,-100,0,0,100,0.00,40.00,0,-999,0,0.00
2013-2-28,62,54,47,-100,-100,-100,0,0,100,0.00,40.00,0,-999,0,0.00
2013-3-1,68,56,45,-100,-100,-100,0,0,100,0.00,40.00,0,-999,0,0.00
2013-3-2,63,55,49,-100,-100,-100,0,0,100,0.00,40.00,0,-999,0,0.00
2013-3-3,59,52,47,-100,-100,-100,0,0,100,0.00,40.00,0,-999,0,0.00
2013-3-4,52,47,44,-100,-100,-100,0,0,100,0.00,40.00,0,-999,0,0.00
2013-3-5,54,47,40,-100,-100,-100,0,0,100,0.00,40.00,0,-999,0,0.00
2013-3-6,51,49,45,-100,-100,-100,0,0,100,0.00,40.00,0,-999,0,0.00
2013-3-7,54,49,41,-100,-100,-100,0,0,100,0.00,40.00,0,-999,0,0.00
2013-3-8,57,49,44,-100,-100,-100,0,0,100,0.00,40.00,0,-999,0,0.00
2013-3-9,64,53,39,-100,-100,-100,0,0,100,0.00,40.00,0,-999,0,0.00
2013-3-10,65,55,40,-100,-100,-100,0,0,100,0.00,40.00,0,-999,0,0.00
2013-3-11,66,51,41,-100,-100,-100,0,0,100,0.00,40.00,0,-999,0,0.00
2013-3-12,68,54,47,-100,-100,-100,0,0,100,0.00,40.00,0,-999,0,0.00
2013-3-13,73,54,46,-100,-100,-100,0,0,100,0.00,40.00,0,-999,0,0.00
2013-3-14,60,53,47,-100,-100,-100,0,0,100,0.00,40.00,0,-999,0,0.00
2013-3-15,65,53,46,-100,-100,-100,0,0,100,0.00,40.00,0,-999,0,0.00
2013-3-16,63,55,47,-100,-100,-100,0,0,100,0.00,40.00,0,-999,0,0.00
2013-3-17,65,56,43,-100,-100,-100,0,0,100,0.00,40.00,0,-999,0,0.00
2013-3-18,60,51,44,-100,-100,-100,0,0,100,0.00,40.00,0,-999,0,0.00
2013-3-19,62,52,47,-100,-100,-100,0,0,100,0.00,40.00,0,-999,0,0.00
2013-3-20,56,52,48,-100,-100,-100,0,0,100,0.00,40.00,0,-999,0,0.00
2013-3-21,61,52,43,-100,-100,-100,0,0,100,0.00,40.00,0,-999,0,0.00
2013-3-22,65,55,45,-100,-100,-100,0,0,100,0.00,40.00,0,-999,0,0.00
2013-3-23,65,54,42,-100,-100,-100,0,0,100,0.00,40.00,0,-999,0,0.00
2013-3-24,63,53,44,-100,-100,-100,0,0,100,0.00,40.00,0,-999,0,0.00
2013-3-25,57,49,44,-100,-100,-100,0,0,100,0.00,40.00,0,-999,0,0.00
2013-3-26,59,51,45,-100,-100,-100,0,0,100,0.00,40.00,0,-999,0,0.00
2013-3-27,58,53,47,-100,-100,-100,0,0,100,0.00,40.00,0,-999,0,0.00
2013-3-28,64,57,51,-100,-100,-100,0,0,100,0.00,40.00,0,-999,0,0.00
2013-3-29,73,57,48,-100,-100,-100,0,0,100,0.00,40.00,0,-999,0,0.00
2013-3-30,63,55,50,-100,-100,-100,0,0,100,0.00,40.00,0,-999,0,0.00
2013-3-31,63,57,53,-100,-100,-100,0,0,100,0.00,40.00,0,-999,0,0.00
2013-4-1,62,56,52,-100,-100,-100,0,0,100,0.00,40.00,0,-999,0,0.00
2013-4-2,62,53,46,-100,-100,-100,0,0,100,0.00,40.00,0,-999,0,0.00
2013-4-3,70,52,48,-100,-100,-100,0,0,100,0.00,40.00,0,-999,0,0.00
2013-4-4,58,54,48,-100,-100,-100,0,0,100,0.00,40.00,0,-999,0,0.00
2013-4-5,61,56,52,-100,-100,-100,0,0,100,0.00,40.00,0,-999,0,0.00
2013-4-6,61,54,51,-100,-100,-100,0,0,100,0.00,40.00,0,-999,0,0.00
2013-4-7,60,54,51,-100,-100,-100,0,0,100,0.00,40.00,0,-999,0,0.00
2013-4-8,67,54,47,-100,-100,-100,0,0,100,0.00,40.00,0,-999,0,0.00
2013-4-9,72,61,50,-100,-100,-100,0,0,100,0.00,40.00,0,-999,0,0.00
2013-4-10,78,63,55,-100,-100,-100,0,0,100,0.00,40.00,0,-999,0,0.00
2013-4-11,69,58,49,-100,-100,-100,0,0,100,0.00,40.00,0,-999,0,0.00
2013-4-12,64,54,47,-100,-100,-100,0,0,100,0.00,40.00,0,-999,0,0.00
2013-4-13,62,56,47,-100,-100,-100,0,0,100,0.00,40.00,0,-999,0,0.00
2013-4-14,64,55,44,-100,-100,-100,0,0,100,0.00,40.00,0,-999,0,0.00
2013-4-15,57,49,44,-100,-100,-100,0,0,100,0.00,40.00,0,-999,0,0.00
2013-4-16,64,53,45,-100,-100,-100,0,0,100,0.00,40.00,0,-999,0,0.00
2013-4-17,67,58,51,-100,-100,-100,0,0,100,0.00,40.00,0,-999,0,0.00
2013-4-18,71,57,46,-100,-100,-100,0,0,100,0.00,40.00,0,-999,0,0.00
2013-4-19,69,58,48,-100,-100,-100,0,0,100,0.00,40.00,0,-999,0,0.00
2013-4-20,73,60,51,-100,-100,-100,0,0,100,0.00,40.00,0,-999,0,0.00
2013-4-21,76,61,48,-100,-100,-100,0,0,100,0.00,40.00,0,-999,0,0.00
2013-4-22,82,64,52,-100,-100,-100,0,0,100,0.00,40.00,0,-999,0,0.00
2013-4-23,74,62,48,-100,-100,-100,0,0,100,0.00,40.00,0,-999,0,0.00
2013-4-24,57,52,46,-100,-100,-100,0,0,100,0.00,40.00,0,-999,0,0.00
2013-4-25,59,54,51,-100,-100,-100,0,0,100,0.00,40.00,0,-999,0,0.00
2013-4-26,62,54,48,-100,-100,-100,0,0,100,0.00,40.00,0,-999,0,0.00
2013-4-27,60,52,47,-100,-100,-100,0,0,100,0.00,40.00,0,-999,0,0.00
2013-4-28,72,59,47,-100,-100,-100,0,0,100,0.00,40.00,0,-999,0,0.00
2013-4-29,73,64,53,-100,-100,-100,0,0,100,0.00,40.00,0,-999,0,0.00
2013-4-30,70,62,53,-100,-100,-100,0,0,100,0.00,40.00,0,-999,0,0.00
2013-5-1,80,67,57,-100,-100,-100,0,0,100,0.00,40.00,0,-999,0,0.00
2013-5-2,86,69,52,-100,-100,-100,0,0,100,0.00,40.00,0,-999,0,0.00
2013-5-3,83,64,55,-100,-100,-100,0,0,100,0.00,40.00,0,-999,0,0.00
2013-5-4,72,59,52,-100,-100,-100,0,0,100,0.00,40.00,0,-999,0,0.00
2013-5-5,62,58,53,-100,-100,-100,0,0,100,0.00,40.00,0,-999,0,0.00
2013-5-6,65,60,55,-100,-100,-100,0,0,100,0.00,40.00,0,-999,0,0.00
2013-5-7,65,60,52,-100,-100,-100,0,0,100,0.00,40.00,0,-999,0,0.00
2013-5-8,60,54,51,-100,-100,-100,0,0,100,0.00,40.00,0,-999,0,0.00
2013-5-9,64,56,51,-100,-100,-100,0,0,100,0.00,40.00,0,-999,0,0.00
2013-5-10,58,54,51,-100,-100,-100,0,0,100,0.00,40.00,0,-999,0,0.00
2013-5-11,66,55,49,-100,-100,-100,0,0,100,0.00,40.00,0,-999,0,0.00
2013-5-12,66,59,52,-100,-100,-100,0,0,100,0.00,40.00,0,-999,0,0.00
2013-5-13,65,56,50,-100,-100,-100,0,0,100,0.00,40.00,0,-999,0,0.00
2013-5-14,62,56,51,-100,-100,-100,0,0,100,0.00,40.00,0,-999,0,0.00
2013-5-15,67,55,49,-100,-100,-100,0,0,100,0.00,40.00,0,-999,0,0.00
2013-5-16,67,59,53,-100,-100,-100,0,0,100,0.00,40.00,0,-999,0,0.00
2013-5-17,66,57,51,-100,-100,-100,0,0,100,0.00,40.00,0,-999,0,0.00
2013-5-18,71,59,50,-100,-100,-100,0,0,100,0.00,40.00,0,-999,0,0.00
2013-5-19,77,65,51,-100,-100,-100,0,0,100,0.00,40.00,0,-999,0,0.00
2013-5-20,80,64,51,-100,-100,-100,0,0,100,0.00,40.00,0,-999,0,0.00
2013-5-21,65,57,50,-100,-100,-100,0,0,100,0.00,40.00,0,-999,0,0.00
2013-5-22,62,54,47,-100,-100,-100,0,0,100,0.00,40.00,0,-999,0,0.00
2013-5-23,65,54,47,-100,-100,-100,0,0,100,0.00,40.00,0,-999,0,0.00
2013-5-24,65,56,48,-100,-100,-100,0,0,100,0.00,40.00,0,-999,0,0.00
2013-5-25,61,55,48,-100,-100,-100,0,0,100,0.00,40.00,0,-999,0,0.00
2013-5-26,67,60,52,-100,-100,-100,0,0,100,0.00,40.00,0,-999,0,0.00
2013-5-27,61,56,52,-100,-100,-100,0,0,100,0.00,40.00,0,-999,0,0.00
2013-5-28,70,60,52,-100,-100,-100,0,0,100,0.00,40.00,0,-999,0,0.00
2013-5-29,69,60,54,-100,-100,-100,0,0,100,0.00,40.00,0,-999,0,0.00
2013-5-30,70,59,50,-100,-100,-100,0,0,100,0.00,40.00,0,-999,0,0.00
2013-5-31,71,61,51,-100,-100,-100,0,0,100,0.00,40.00,0,-999,0,0.00
2013-6-1,73,63,54,-100,-100,-100,0,0,100,0.00,40.00,0,-999,0,0.00
2013-6-2,64,57,51,-100,-100,-100,0,0,100,0.00,40.00,0,-999,0,0.00
2013-6-3,61,55,51,-100,-100,-100,0,0,100,0.00,40.00,0,-999,0,0.00
2013-6-4,59,55,52,-100,-100,-100,0,0,100,0.00,40.00,0,-999,0,0.00
2013-6-5,61,54,51,-100,-100,-100,0,0,100,0.00,40.00,0,-999,0,0.00
2013-6-6,63,55,50,-100,-100,-100,0,0,100,0.00,40.00,0,-999,0,0.00
2013-6-7,69,55,51,-100,-100,-100,0,0,100,0.00,40.00,0,-999,0,0.00
2013-6-8,67,59,54,-100,-100,-100,0,0,100,0.00,40.00,0,-999,0,0.00
2013-6-9,59,57,54,-100,-100,-100,0,0,100,0.00,40.00,0,-999,0,0.00
2013-6-10,62,58,53,-100,-100,-100,0,0,100,0.00,40.00,0,-999,0,0.00
2013-6-11,67,60,56,-100,-100,-100,0,0,100,0.00,40.00,0,-999,0,0.00
2013-6-12,72,61,52,-100,-100,-100,0,0,100,0.00,40.00,0,-999,0,0.00
2013-6-13,73,62,51,-100,-100,-100,0,0,100,0.00,40.00,0,-999,0,0.00
2013-6-14,76,63,51,-100,-100,-100,0,0,100,0.00,40.00,0,-999,0,0.00
2013-6-15,58,54,49,-100,-100,-100,0,0,100,0.00,40.00,0,-999,0,0.00
2013-6-16,73,61,51,-100,-100,-100,0,0,100,0.00,40.00,0,-999,0,0.00
2013-6-17,70,60,51,-100,-100,-100,0,0,100,0.00,40.00,0,-999,0,0.00
2013-6-18,66,60,54,-100,-100,-100,0,0,100,0.00,40.00,0,-999,0,0.00
2013-6-19,71,60,52,-100,-100,-100,0,0,100,0.00,40.00,0,-999,0,0.00
2013-6-20,67,57,52,-100,-100,-100,0,0,100,0.00,40.00,0,-999,0,0.00
2013-6-22,75,66,58,-100,-100,-100,0,0,100,0.00,40.00,0,-999,0,0.00
2013-6-23,61,58,54,-100,-100,-100,0,0,100,0.00,40.00,0,-999,0,0.00
2013-6-24,58,56,54,-100,-100,-100,0,0,100,0.00,40.00,0,-999,0,0.00
2013-6-25,64,61,57,-100,-100,-100,0,0,100,0.00,40.00,0,-999,0,0.00
2013-6-26,76,66,59,-100,-100,-100,0,0,100,0.00,40.00,0,-999,0,0.00
2013-6-27,78,67,58,-100,-100,-100,0,0,100,0.00,40.00,0,-999,0,0.00
2013-6-28,73,65,57,-100,-100,-100,0,0,100,0.00,40.00,0,-999,0,0.00
2013-6-29,79,67,58,-100,-100,-100,0,0,100,0.00,40.00,0,-999,0,0.00
2013-6-30,69,63,58,-100,-100,-100,0,0,100,0.00,40.00,0,-999,0,0.00
2013-7-1,76,61,55,-100,-100,-100,0,0,100,0.00,40.00,0,-999,0,0.00
2013-7-2,69,62,55,-100,-100,-100,0,0,100,0.00,40.00,0,-999,0,0.00
2013-7-3,75,65,56,-100,-100,-100,0,0,100,0.00,40.00,0,-999,0,0.00
2013-7-4,69,64,59,-100,-100,-100,0,0,100,0.00,40.00,0,-999,0,0.00
2013-7-5,61,56,54,-100,-100,-100,0,0,100,0.00,40.00,0,-999,0,0.00
2013-7-6,61,55,52,-100,-100,-100,0,0,100,0.00,40.00,0,-999,0,0.00
2013-7-7,65,58,53,-100,-100,-100,0,0,100,0.00,40.00,0,-999,0,0.00
2013-7-8,66,56,53,-100,-100,-100,0,0,100,0.00,40.00,0,-999,0,0.00
2013-7-9,72,60,52,-100,-100,-100,0,0,100,0.00,40.00,0,-999,0,0.00
2013-7-10,65,57,52,-100,-100,-100,0,0,100,0.00,40.00,0,-999,0,0.00
2013-7-11,61,55,51,-100,-100,-100,0,0,100,0.00,40.00,0,-999,0,0.00
2013-7-12,62,56,52,-100,-100,-100,0,0,100,0.00,40.00,0,-999,0,0.00
2013-7-13,63,57,52,-100,-100,-100,0,0,100,0.00,40.00,0,-999,0,0.00
2013-7-14,61,57,52,-100,-100,-100,0,0,100,0.00,40.00,0,-999,0,0.00
2013-7-15,62,54,50,-100,-100,-100,0,0,100,0.00,40.00,0,-999,0,0.00
2013-7-16,61,56,52,-100,-100,-100,0,0,100,0.00,40.00,0,-999,0,0.00
2013-7-17,66,60,55,-100,-100,-100,0,0,100,0.00,40.00,0,-999,0,0.00
2013-7-18,65,57,53,-100,-100,-100,0,0,100,0.00,40.00,0,-999,0,0.00
2013-7-19,64,56,52,-100,-100,-100,0,0,100,0.00,40.00,0,-999,0,0.00
2013-7-20,62,54,51,-100,-100,-100,0,0,100,0.00,40.00,0,-999,0,0.00
2013-7-21,62,57,52,-100,-100,-100,0,0,100,0.00,40.00,0,-999,0,0.00
2013-7-22,65,60,55,-100,-100,-100,0,0,100,0.00,40.00,0,-999,0,0.00
2013-7-23,66,60,56,-100,-100,-100,0,0,100,0.00,40.00,0,-999,0,0.00
2013-7-24,68,61,54,-100,-100,-100,0,0,100,0.00,40.00,0,-999,0,0.00
2013-7-25,62,56,52,-100,-100,-100,0,0,100,0.00,40.00,0,-999,0,0.00
2013-7-26,64,58,52,-100,-100,-100,0,0,100,0.00,40.00,0,-999,0,0.00
2013-7-27,65,57,52,-100,-100,-100,0,0,100,0.00,40.00,0,-999,0,0.00
2013-7-28,62,55,52,-100,-100,-100,0,0,100,0.00,40.00,0,-999,0,0.00
2013-7-29,61,56,53,-100,-100,-100,0,0,100,0.00,40.00,0,-999,0,0.00
2013-7-30,63,58,54,-100,-100,-100,0,0,100,0.00,40.00,0,-999,0,0.00
2013-7-31,64,56,52,-100,-100,-100,0,0,100,0.00,40.00,0,-999,0,0.00
2013-8-1,64,58,54,-100,-100,-100,0,0,100,0.00,40.00,0,-999,0,0.00
2013-8-2,65,56,52,-100,-100,-100,0,0,100,0.00,40.00,0,-999,0,0.00
2013-8-3,64,57,52,-100,-100,-100,0,0,100,0.00,40.00,0,-999,0,0.00
2013-8-4,61,56,51,-100,-100,-100,0,0,100,0.00,40.00,0,-999,0,0.00
2013-8-5,63,56,53,-100,-100,-100,0,0,100,0.00,40.00,0,-999,0,0.00
2013-8-6,62,56,52,-100,-100,-100,0,0,100,0.00,40.00,0,-999,0,0.00
2013-8-7,63,58,54,-100,-100,-100,0,0,100,0.00,40.00,0,-999,0,0.00
2013-8-8,67,60,56,-100,-100,-100,0,0,100,0.00,40.00,0,-999,0,0.00
2013-8-9,65,58,54,-100,-100,-100,0,0,100,0.00,40.00,0,-999,0,0.00
2013-8-10,67,61,57,-100,-100,-100,0,0,100,0.00,40.00,0,-999,0,0.00
2013-8-11,63,57,54,-100,-100,-100,0,0,100,0.00,40.00,0,-999,0,0.00
2013-8-12,65,58,53,-100,-100,-100,0,0,100,0.00,40.00,0,-999,0,0.00
2013-8-13,76,62,54,-100,-100,-100,0,0,100,0.00,40.00,0,-999,0,0.00
2013-8-14,69,61,54,-100,-100,-100,0,0,100,0.00,40.00,0,-999,0,0.00
2013-8-15,72,63,58,-100,-100,-100,0,0,100,0.00,40.00,0,-999,0,0.00
2013-8-16,69,61,56,-100,-100,-100,0,0,100,0.00,40.00,0,-999,0,0.00
2013-8-17,70,62,56,-100,-100,-100,0,0,100,0.00,40.00,0,-999,0,0.00
2013-8-18,73,63,55,-100,-100,-100,0,0,100,0.00,40.00,0,-999,0,0.00
2013-8-19,73,63,57,-100,-100,-100,0,0,100,0.00,40.00,0,-999,0,0.00
2013-8-20,67,60,56,-100,-100,-100,0,0,100,0.00,40.00,0,-999,0,0.00
2013-8-21,67,59,55,-100,-100,-100,0,0,100,0.00,40.00,0,-999,0,0.00
2013-8-22,67,60,55,-100,-100,-100,0,0,100,0.00,40.00,0,-999,0,0.00
2013-8-23,62,58,55,-100,-100,-100,0,0,100,0.00,40.00,0,-999,0,0.00
2013-8-24,69,62,54,-100,-100,-100,0,0,100,0.00,40.00,0,-999,0,0.00
2013-8-25,69,64,59,-100,-100,-100,0,0,100,0.00,40.00,0,-999,0,0.00
2013-8-26,71,63,59,-100,-100,-100,0,0,100,0.00,40.00,0,-999,0,0.00
2013-8-27,62,58,55,-100,-100,-100,0,0,100,0.00,40.00,0,-999,0,0.00
2013-8-28,72,65,60,-100,-100,-100,0,0,100,0.00,40.00,0,-999,0,0.00
2013-8-29,72,65,60,-100,-100,-100,0,0,100,0.00,40.00,0,-999,0,0.00
2013-8-30,76,66,60,-100,-100,-100,0,0,100,0.00,40.00,0,-999,0,0.00
2013-8-31,68,61,55,-100,-100,-100,0,0,100,0.00,40.00,0,-999,0,0.00
2013-9-1,70,62,56,-100,-100,-100,0,0,100,0.00,40.00,0,-999,0,0.00
2013-9-2,72,66,60,-100,-100,-100,0,0,100,0.00,40.00,0,-999,0,0.00
2013-9-3,74,64,57,-100,-100,-100,0,0,100,0.00,40.00,0,-999,0,0.00
2013-9-4,75,64,58,-100,-100,-100,0,0,100,0.00,40.00,0,-999,0,0.00
2013-9-5,75,65,58,-100,-100,-100,0,0,100,0.00,40.00,0,-999,0,0.00
2013-9-6,87,71,55,-100,-100,-100,0,0,100,0.00,40.00,0,-999,0,0.00
2013-9-7,87,68,55,-100,-100,-100,0,0,100,0.00,40.00,0,-999,0,0.00
2013-9-8,71,61,54,-100,-100,-100,0,0,100,0.00,40.00,0,-999,0,0.00
2013-9-9,69,58,53,-100,-100,-100,0,0,100,0.00,40.00,0,-999,0,0.00
2013-9-10,63,60,56,-100,-100,-100,0,0,100,0.00,40.00,0,-999,0,0.00
2013-9-11,66,62,60,-100,-100,-100,0,0,100,0.00,40.00,0,-999,0,0.00
2013-9-12,68,62,58,-100,-100,-100,0,0,100,0.00,40.00,0,-999,0,0.00
2013-9-13,65,59,54,-100,-100,-100,0,0,100,0.00,40.00,0,-999,0,0.00
2013-9-14,66,59,54,-100,-100,-100,0,0,100,0.00,40.00,0,-999,0,0.00
2013-9-15,71,65,54,-100,-100,-100,0,0,100,0.00,40.00,0,-999,0,0.00
2013-9-16,72,62,56,-100,-100,-100,0,0,100,0.00,40.00,0,-999,0,0.00
2013-9-17,69,63,57,-100,-100,-100,0,0,100,0.00,40.00,0,-999,0,0.00
2013-9-18,65,58,54,-100,-100,-100,0,0,100,0.00,40.00,0,-999,0,0.00
2013-9-19,78,64,53,-100,-100,-100,0,0,100,0.00,40.00,0,-999,0,0.00
2013-9-20,68,60,52,-100,-100,-100,0,0,100,0.00,40.00,0,-999,0,0.00
2013-9-21,65,60,58,-100,-100,-100,0,0,100,0.00,40.00,0,-999,0,0.00
2013-9-22,68,61,51,-100,-100,-100,0,0,100,0.00,40.00,0,-999,0,0.00
2013-9-23,75,63,53,-100,-100,-100,0,0,100,0.00,40.00,0,-999,0,0.00
2013-9-24,71,62,57,-100,-100,-100,0,0,100,0.00,40.00,0,-999,0,0.00
2013-9-25,66,59,55,-100,-100,-100,0,0,100,0.00,40.00,0,-999,0,0.00
2013-9-26,70,61,53,-100,-100,-100,0,0,100,0.00,40.00,0,-999,0,0.00
2013-9-27,73,64,51,-100,-100,-100,0,0,100,0.00,40.00,0,-999,0,0.00
2013-9-28,76,63,51,-100,-100,-100,0,0,100,0.00,40.00,0,-999,0,0.00
2013-9-29,67,62,55,-100,-100,-100,0,0,100,0.00,40.00,0,-999,0,0.00
2013-9-30,67,62,58,-100,-100,-100,0,0,100,0.00,40.00,0,-999,0,0.00
2013-10-1,67,63,60,-100,-100,-100,0,0,100,0.00,40.00,0,-999,0,0.00
2013-10-2,69,60,51,-100,-100,-100,0,0,100,0.00,40.00,0,-999,0,0.00
2013-10-3,73,61,54,-100,-100,-100,0,0,100,0.00,40.00,0,-999,0,0.00
2013-10-4,79,69,60,-100,-100,-100,0,0,100,0.00,40.00,0,-999,0,0.00
2013-10-5,81,70,57,-100,-100,-100,0,0,100,0.00,40.00,0,-999,0,0.00
2013-10-6,80,71,51,-100,-100,-100,0,0,100,0.00,40.00,0,-999,0,0.00
2013-10-7,74,60,51,-100,-100,-100,0,0,100,0.00,40.00,0,-999,0,0.00
2013-10-8,66,58,49,-100,-100,-100,0,0,100,0.00,40.00,0,-999,0,0.00
2013-10-9,65,56,50,-100,-100,-100,0,0,100,0.00,40.00,0,-999,0,0.00
2013-10-10,58,54,50,-100,-100,-100,0,0,100,0.00,40.00,0,-999,0,0.00
2013-10-11,60,52,48,-100,-100,-100,0,0,100,0.00,40.00,0,-999,0,0.00
2013-10-12,58,52,49,-100,-100,-100,0,0,100,0.00,40.00,0,-999,0,0.00
2013-10-13,67,57,47,-100,-100,-100,0,0,100,0.00,40.00,0,-999,0,0.00
2013-10-14,73,59,46,-100,-100,-100,0,0,100,0.00,40.00,0,-999,0,0.00
2013-10-15,80,67,47,-100,-100,-100,0,0,100,0.00,40.00,0,-999,0,0.00
2013-10-16,78,63,49,-100,-100,-100,0,0,100,0.00,40.00,0,-999,0,0.00
2013-10-17,76,57,48,-100,-100,-100,0,0,100,0.00,40.00,0,-999,0,0.00
2013-10-18,69,55,46,-100,-100,-100,0,0,100,0.00,40.00,0,-999,0,0.00
2013-10-19,76,58,46,-100,-100,-100,0,0,100,0.00,40.00,0,-999,0,0.00
2013-10-20,62,52,46,-100,-100,-100,0,0,100,0.00,40.00,0,-999,0,0.00
2013-10-21,59,51,47,-100,-100,-100,0,0,100,0.00,40.00,0,-999,0,0.00
2013-10-22,61,52,47,-100,-100,-100,0,0,100,0.00,40.00,0,-999,0,0.00
2013-10-23,58,50,47,-100,-100,-100,0,0,100,0.00,40.00,0,-999,0,0.00
2013-10-24,58,51,47,-100,-100,-100,0,0,100,0.00,40.00,0,-999,0,0.00
2013-10-25,63,55,46,-100,-100,-100,0,0,100,0.00,40.00,0,-999,0,0.00
2013-10-26,73,57,46,-100,-100,-100,0,0,100,0.00,40.00,0,-999,0,0.00
2013-10-27,55,51,47,-100,-100,-100,0,0,100,0.00,40.00,0,-999,0,0.00
2013-10-28,58,52,46,-100,-100,-100,0,0,100,0.00,40.00,0,-999,0,0.00
2013-10-29,58,54,51,-100,-100,-100,0,0,100,0.00,40.00,0,-999,0,0.00
2013-10-30,64,52,43,-100,-100,-100,0,0,100,0.00,40.00,0,-999,0,0.00
2013-10-31,71,56,43,-100,-100,-100,0,0,100,0.00,40.00,0,-999,0,0.00
2013-11-1,73,58,47,-100,-100,-100,0,0,100,0.00,40.00,0,-999,0,0.00
2013-11-2,63,54,47,-100,-100,-100,0,0,100,0.00,40.00,0,-999,0,0.00
2013-11-3,62,55,49,-100,-100,-100,0,0,100,0.00,40.00,0,-999,0,0.00
2013-11-4,69,55,43,-100,-100,-100,0,0,100,0.00,40.00,0,-999,0,0.00
2013-11-5,70,58,45,-100,-100,-100,0,0,100,0.00,40.00,0,-999,0,0.00
2013-11-6,69,59,47,-100,-100,-100,0,0,100,0.00,40.00,0,-999,0,0.00
2013-11-7,67,58,50,-100,-100,-100,0,0,100,0.00,40.00,0,-999,0,0.00
2013-11-8,67,56,47,-100,-100,-100,0,0,100,0.00,40.00,0,-999,0,0.00
2013-11-9,70,55,44,-100,-100,-100,0,0,100,0.00,40.00,0,-999,0,0.00
2013-11-10,59,53,47,-100,-100,-100,0,0,100,0.00,40.00,0,-999,0,0.00
2013-11-11,60,52,47,-100,-100,-100,0,0,100,0.00,40.00,0,-999,0,0.00
2013-11-12,68,59,52,-100,-100,-100,0,0,100,0.00,40.00,0,-999,0,0.00
2013-11-13,65,53,47,-100,-100,-100,0,0,100,0.00,40.00,0,-999,0,0.00
2013-11-14,57,53,50,-100,-100,-100,0,0,100,0.00,40.00,0,-999,0,0.00
2013-11-15,61,52,43,-100,-100,-100,0,0,100,0.00,40.00,0,-999,0,0.00
2013-11-16,58,52,44,-100,-100,-100,0,0,100,0.00,40.00,0,-999,0,0.00
2013-11-17,57,51,47,-100,-100,-100,0,0,100,0.00,40.00,0,-999,0,0.00
2013-11-18,54,50,45,-100,-100,-100,0,0,100,0.00,40.00,0,-999,0,0.00
2013-11-19,54,53,51,-100,-100,-100,0,0,100,0.00,40.00,0,-999,0,0.00
2013-11-20,55,54,50,-100,-100,-100,0,0,100,0.00,40.00,0,-999,0,0.00
2013-11-21,59,54,50,-100,-100,-100,0,0,100,0.00,40.00,0,-999,0,0.00
2013-11-22,69,59,53,-100,-100,-100,0,0,100,0.00,40.00,0,-999,0,0.00
2013-11-23,63,55,46,-100,-100,-100,0,0,100,0.00,40.00,0,-999,0,0.00
2013-11-24,59,49,42,-100,-100,-100,0,0,100,0.00,40.00,0,-999,0,0.00
2013-11-25,62,50,40,-100,-100,-100,0,0,100,0.00,40.00,0,-999,0,0.00
2013-11-26,59,51,43,-100,-100,-100,0,0,100,0.00,40.00,0,-999,0,0.00
2013-11-27,61,54,46,-100,-100,-100,0,0,100,0.00,40.00,0,-999,0,0.00
2013-11-28,64,54,46,-100,-100,-100,0,0,100,0.00,40.00,0,-999,0,0.00
2013-11-29,65,54,43,-100,-100,-100,0,0,100,0.00,40.00,0,-999,0,0.00
2013-11-30,62,49,43,-100,-100,-100,0,0,100,0.00,40.00,0,-999,0,0.00
2013-12-1,66,54,43,-100,-100,-100,0,0,100,0.00,40.00,0,-999,0,0.00
2013-12-2,58,51,44,-100,-100,-100,0,0,100,0.00,40.00,0,-999,0,0.00
2013-12-3,54,49,44,-100,-100,-100,0,0,100,0.00,40.00,0,-999,0,0.00
2013-12-4,49,41,32,-100,-100,-100,0,0,100,0.00,40.00,0,-999,0,0.00
2013-12-5,47,38,28,-100,-100,-100,0,0,100,0.00,40.00,0,-999,0,0.00
2013-12-6,48,40,30,-100,-100,-100,0,0,100,0.00,40.00,0,-999,0,0.00
2013-12-7,47,41,35,-100,-100,-100,0,0,100,0.00,40.00,0,-999,0,0.00
2013-12-8,43,37,30,-100,-100,-100,0,0,100,0.00,40.00,0,-999,0,0.00
2013-12-9,47,39,29,-100,-100,-100,0,0,100,0.00,40.00,0,-999,0,0.00
2013-12-10,51,42,32,-100,-100,-100,0,0,100,0.00,40.00,0,-999,0,0.00
2013-12-11,54,43,32,-100,-100,-100,0,0,100,0.00,40.00,0,-999,0,0.00
2013-12-12,58,47,37,-100,-100,-100,0,0,100,0.00,40.00,0,-999,0,0.00
2013-12-13,54,42,34,-100,-100,-100,0,0,100,0.00,40.00,0,-999,0,0.00
2013-12-14,59,48,36,-100,-100,-100,0,0,100,0.00,40.00,0,-999,0,0.00
2013-12-15,60,52,39,-100,-100,-100,0,0,100,0.00,40.00,0,-999,0,0.00
2013-12-16,65,56,43,-100,-100,-100,0,0,100,0.00,40.00,0,-999,0,0.00
2013-12-17,65,53,46,-100,-100,-100,0,0,100,0.00,40.00,0,-999,0,0.00
2013-12-18,50,46,40,-100,-100,-100,0,0,100,0.00,40.00,0,-999,0,0.00
2013-12-19,59,50,45,-100,-100,-100,0,0,100,0.00,40.00,0,-999,0,0.00
2013-12-20,55,46,36,-100,-100,-100,0,0,100,0.00,40.00,0,-999,0,0.00
2013-12-21,58,49,40,-100,-100,-100,0,0,100,0.00,40.00,0,-999,0,0.00
2013-12-22,63,50,39,-100,-100,-100,0,0,100,0.00,40.00,0,-999,0,0.00
2013-12-23,62,49,40,-100,-100,-100,0,0,100,0.00,40.00,0,-999,0,0.00
2013-12-24,61,49,40,-100,-100,-100,0,0,100,0.00,40.00,0,-999,0,0.00
2013-12-25,63,56,46,-100,-100,-100,0,0,100,0.00,40.00,0,-999,0,0.00
2013-12-26,65,55,40,-100,-100,-100,0,0,100,0.00,40.00,0,-999,0,0.00
2013-12-27,59,49,40,-100,-100,-100,0,0,100,0.00,40.00,0,-999,0,0.00
2013-12-28,59,47,36,-100,-100,-100,0,0,100,0.00,40.00,0,-999,0,0.00
2013-12-29,63,52,41,-100,-100,-100,0,0,100,0.00,40.00,0,-999,0,0.00
2013-12-30,60,49,39,-100,-100,-100,0,0,100,0.00,40.00,0,-999,0,0.00
2013-12-31,54,45,38,-100,-100,-100,0,0,100,0.00,40.00,0,-999,0,0.00
2014-1-1,55,47,36,-100,-100,-100,0,0,100,0.00,40.00,0,-999,0,0.00
2014-1-2,65,54,41,-100,-100,-100,0,0,100,0.00,40.00,0,-999,0,0.00